Time;durP1;ratioP1;P1;durP2;ratioP2;P2;SDS_P1;SDS_P2;PMS_P1;PMS_P2;Temp;Humidity;BMP_temperature;BMP_pressure;BME280_temperature;BME280_humidity;BME280_pressure;Samples;Min_cycle;Max_cycle;Signal;HPM_P1;HPM_P2
2023/02/01 00:00:34;;;;;;;16.52;10.40;;;20.10;34.20;;;;;;5052640;28;20083;-65
2023/02/01 00:03:01;;;;;;;17.88;10.52;;;20.10;34.20;;;;;;5052263;28;20102;-65
2023/02/01 00:05:28;;;;;;;14.32;9.90;;;20.10;34.10;;;;;;5053054;28;20051;-65
2023/02/01 00:07:55;;;;;;;15.18;9.98;;;20.00;34.10;;;;;;5052318;28;20496;-65
2023/02/01 00:10:22;;;;;;;13.80;8.68;;;20.00;34.10;;;;;;5050957;28;20041;-65
2023/02/01 00:12:50;;;;;;;14.93;9.43;;;20.00;34.10;;;;;;5052080;28;20127;-65
2023/02/01 00:15:17;;;;;;;14.40;9.15;;;20.00;34.10;;;;;;5052583;28;20484;-65
2023/02/01 00:17:44;;;;;;;13.00;9.02;;;20.00;34.10;;;;;;5052820;28;20067;-65
2023/02/01 00:20:11;;;;;;;14.68;9.65;;;20.00;34.10;;;;;;5052844;28;20485;-65
2023/02/01 00:22:38;;;;;;;13.95;9.20;;;20.00;34.10;;;;;;5052766;28;20052;-65
2023/02/01 00:25:06;;;;;;;14.23;8.45;;;20.00;34.10;;;;;;5052255;28;20587;-65
2023/02/01 00:27:33;;;;;;;12.98;8.45;;;20.00;34.10;;;;;;5051906;28;20049;-65
2023/02/01 00:30:00;;;;;;;14.45;9.35;;;20.00;34.10;;;;;;5052643;28;20045;-65
2023/02/01 00:32:27;;;;;;;13.48;9.02;;;20.00;34.10;;;;;;5052111;28;20049;-65
2023/02/01 00:34:54;;;;;;;12.98;8.40;;;20.00;34.10;;;;;;5051500;28;20144;-65
2023/02/01 00:37:23;;;;;;;10.98;7.97;;;20.00;34.20;;;;;;5050996;28;20103;-65
2023/02/01 00:39:50;;;;;;;12.55;8.02;;;20.00;34.10;;;;;;5051448;28;20051;-65
2023/02/01 00:42:17;;;;;;;14.95;9.10;;;20.00;34.20;;;;;;5052248;28;20045;-66
2023/02/01 00:44:44;;;;;;;13.38;8.30;;;20.00;34.10;;;;;;5049611;28;20045;-65
2023/02/01 00:47:11;;;;;;;11.68;8.20;;;20.00;34.10;;;;;;5051467;28;20059;-65
2023/02/01 00:49:38;;;;;;;14.10;9.27;;;20.00;34.10;;;;;;5052379;28;20049;-65
2023/02/01 00:52:05;;;;;;;12.13;8.20;;;20.00;34.10;;;;;;5051984;28;20053;-65
2023/02/01 00:54:33;;;;;;;13.10;9.45;;;20.00;34.20;;;;;;5052097;28;20056;-65
2023/02/01 00:57:00;;;;;;;13.90;8.98;;;20.00;34.20;;;;;;5051986;28;20045;-65
2023/02/01 00:59:27;;;;;;;10.32;7.95;;;20.00;34.10;;;;;;5050880;28;20056;-65
2023/02/01 01:01:54;;;;;;;14.15;8.90;;;20.00;34.10;;;;;;5052132;28;20047;-65
2023/02/01 01:04:21;;;;;;;12.30;8.13;;;20.00;34.10;;;;;;5051992;28;20511;-65
2023/02/01 01:06:48;;;;;;;12.65;8.60;;;20.00;34.20;;;;;;5052497;28;20067;-65
2023/02/01 01:09:15;;;;;;;10.73;7.82;;;20.00;34.10;;;;;;5051628;28;20505;-65
2023/02/01 01:11:43;;;;;;;11.75;8.07;;;20.00;34.10;;;;;;5052364;28;20425;-65
2023/02/01 01:14:11;;;;;;;12.70;8.25;;;20.00;34.10;;;;;;5051783;28;20049;-65
2023/02/01 01:16:38;;;;;;;13.35;8.40;;;20.00;34.10;;;;;;5051542;28;20041;-65
2023/02/01 01:19:05;;;;;;;10.77;7.68;;;20.00;34.10;;;;;;5050889;28;20057;-65
2023/02/01 01:21:32;;;;;;;12.32;7.63;;;20.00;34.10;;;;;;5051202;28;20508;-65
2023/02/01 01:23:59;;;;;;;13.10;7.93;;;20.00;34.10;;;;;;5054773;28;20080;-65
2023/02/01 01:26:29;;;;;;;11.15;7.82;;;19.90;34.10;;;;;;5055518;28;20401;-65
2023/02/01 01:28:58;;;;;;;11.77;8.53;;;19.90;34.10;;;;;;5053275;28;20080;-65
2023/02/01 01:31:26;;;;;;;13.68;8.27;;;19.90;34.10;;;;;;5055378;28;20282;-66
2023/02/01 01:33:56;;;;;;;11.18;7.15;;;19.90;34.10;;;;;;5055468;28;20053;-65
2023/02/01 01:36:23;;;;;;;11.27;7.35;;;19.90;34.10;;;;;;5054579;28;20045;-65
2023/02/01 01:38:50;;;;;;;11.40;7.90;;;19.90;34.10;;;;;;5055191;28;20429;-65
2023/02/01 01:41:24;;;;;;;9.63;7.20;;;19.90;34.10;;;;;;5055207;28;20059;-65
2023/02/01 01:43:54;;;;;;;9.55;6.72;;;19.90;34.10;;;;;;5055412;28;20049;-65
2023/02/01 01:46:23;;;;;;;;;;;19.90;34.10;;;;;;5054191;28;20052;-65
2023/02/01 01:48:56;;;;;;;11.65;7.22;;;19.90;34.10;;;;;;5053088;28;19936;-65
2023/02/01 01:51:25;;;;;;;9.45;6.72;;;19.90;34.10;;;;;;5055000;28;20059;-65
2023/02/01 01:54:06;;;;;;;10.95;6.90;;;19.90;34.00;;;;;;5055222;28;20052;-65
2023/02/01 01:56:34;;;;;;;10.48;7.43;;;19.90;34.00;;;;;;5054892;28;20102;-65
2023/02/01 01:59:02;;;;;;;9.02;6.85;;;19.90;34.00;;;;;;5054899;28;20055;-65
2023/02/01 02:01:29;;;;;;;8.23;6.50;;;19.90;34.00;;;;;;5054675;28;20073;-68
2023/02/01 02:03:57;;;;;;;10.43;7.22;;;19.90;34.00;;;;;;5054727;28;20044;-65
2023/02/01 02:06:47;;;;;;;9.57;6.57;;;20.00;34.00;;;;;;5054498;28;20045;-65
2023/02/01 02:09:16;;;;;;;9.13;6.88;;;19.90;34.00;;;;;;5054687;28;20053;-65
2023/02/01 02:11:43;;;;;;;10.65;6.53;;;19.90;34.00;;;;;;5054718;28;20056;-65
2023/02/01 02:14:15;;;;;;;10.50;7.40;;;19.90;34.60;;;;;;5054030;28;20135;-65
2023/02/01 02:16:58;;;;;;;8.93;6.70;;;19.90;34.00;;;;;;5055160;28;20049;-65
2023/02/01 02:20:05;;;;;;;9.40;6.70;;;19.90;34.00;;;;;;5054083;28;20057;-65
2023/02/01 02:23:03;;;;;;;9.07;6.60;;;19.90;34.00;;;;;;5054430;28;20044;-65
2023/02/01 02:26:10;;;;;;;9.75;6.50;;;19.90;34.00;;;;;;5054235;28;20056;-65
2023/02/01 02:29:07;;;;;;;9.38;6.68;;;19.90;34.00;;;;;;5042288;28;20045;-65
2023/02/01 02:32:14;;;;;;;9.02;6.50;;;19.90;34.00;;;;;;5054574;28;20049;-67
2023/02/01 02:35:01;;;;;;;8.70;6.35;;;19.90;34.00;;;;;;5053394;28;20045;-65
2023/02/01 02:37:41;;;;;;;7.47;6.05;;;19.90;34.00;;;;;;5054450;28;20076;-65
2023/02/01 02:40:40;;;;;;;7.35;5.50;;;19.90;34.00;;;;;;5053035;28;20500;-65
2023/02/01 02:49:18;;;;;;;8.50;6.00;;;19.90;34.00;;;;;;5053490;28;20049;-65
2023/02/01 02:54:47;;;;;;;8.52;5.65;;;19.90;34.00;;;;;;5053540;28;20509;-65
2023/02/01 03:05:47;;;;;;;5.30;4.50;;;19.90;34.10;;;;;;5041466;28;20064;-65
2023/02/01 03:08:17;;;;;;;7.18;5.15;;;19.90;34.00;;;;;;5041342;28;20493;-65
2023/02/01 03:11:03;;;;;;;6.60;5.35;;;19.90;34.00;;;;;;5041644;28;20417;-66
2023/02/01 03:13:58;;;;;;;7.57;5.45;;;19.90;34.00;;;;;;5042397;28;20092;-65
2023/02/01 03:16:32;;;;;;;7.40;5.03;;;19.80;34.00;;;;;;5041794;28;20095;-65
2023/02/01 03:19:14;;;;;;;7.80;4.93;;;19.90;34.00;;;;;;5041638;28;20092;-65
2023/02/01 03:21:55;;;;;;;7.90;5.32;;;19.90;34.10;;;;;;5041264;28;20097;-65
2023/02/01 03:24:38;;;;;;;7.07;5.00;;;19.80;34.00;;;;;;5041640;28;20049;-65
2023/02/01 03:27:13;;;;;;;6.80;5.03;;;19.80;34.00;;;;;;5041835;28;20433;-65
2023/02/01 03:29:50;;;;;;;6.80;4.88;;;19.80;34.00;;;;;;5039577;28;20098;-65
2023/02/01 03:32:18;;;;;;;7.03;4.78;;;19.80;34.00;;;;;;5042150;28;20055;-65
2023/02/01 03:34:45;;;;;;;6.75;4.47;;;19.80;34.00;;;;;;5038165;28;20044;-66
2023/02/01 03:37:21;;;;;;;6.20;4.60;;;19.80;34.00;;;;;;5042217;28;20061;-65
2023/02/01 03:40:03;;;;;;;6.60;4.93;;;19.80;34.00;;;;;;5041905;28;20049;-65
2023/02/01 03:42:46;;;;;;;6.72;4.88;;;19.80;34.00;;;;;;5042032;28;20037;-65
2023/02/01 03:45:27;;;;;;;6.45;4.75;;;19.80;34.00;;;;;;5041494;28;20457;-65
2023/02/01 03:47:59;;;;;;;7.38;5.10;;;19.80;34.00;;;;;;5042033;28;20052;-65
2023/02/01 03:50:29;;;;;;;6.28;4.30;;;19.80;34.00;;;;;;5041049;28;20052;-65
2023/02/01 03:53:05;;;;;;;7.22;4.95;;;19.80;34.00;;;;;;5040117;28;20061;-65
2023/02/01 03:55:32;;;;;;;5.47;3.95;;;19.80;34.00;;;;;;5041484;28;20073;-65
2023/02/01 03:58:07;;;;;;;4.95;4.18;;;19.80;34.00;;;;;;5040479;28;20052;-65
2023/02/01 04:00:34;;;;;;;6.32;4.32;;;19.80;34.00;;;;;;5038528;28;20054;-65
2023/02/01 04:03:04;;;;;;;4.38;3.80;;;19.80;34.00;;;;;;5048722;28;20049;-65
2023/02/01 04:05:31;;;;;;;6.07;4.28;;;19.80;34.00;;;;;;5052162;28;20053;-65
2023/02/01 04:07:59;;;;;;;6.75;4.22;;;19.80;33.90;;;;;;5052422;28;20084;-65
2023/02/01 04:10:26;;;;;;;5.45;3.95;;;19.80;33.90;;;;;;5051725;28;20045;-65
2023/02/01 04:12:53;;;;;;;6.60;4.05;;;19.80;33.90;;;;;;5051697;28;20413;-66
2023/02/01 04:15:20;;;;;;;5.35;4.05;;;19.80;33.90;;;;;;5051930;28;20041;-65
2023/02/01 04:17:47;;;;;;;4.38;3.72;;;19.80;33.90;;;;;;5051760;28;20048;-65
2023/02/01 04:20:15;;;;;;;6.47;4.10;;;19.80;33.90;;;;;;5048186;28;20044;-65
2023/02/01 04:22:43;;;;;;;4.53;4.13;;;19.80;33.90;;;;;;5049746;28;20075;-65
2023/02/01 04:25:10;;;;;;;5.07;3.78;;;19.80;33.90;;;;;;5049297;28;20057;-65
2023/02/01 04:27:37;;;;;;;6.70;4.10;;;19.80;33.90;;;;;;5052466;28;20283;-65
2023/02/01 04:30:09;;;;;;;5.32;4.05;;;19.80;33.90;;;;;;5049967;28;20041;-65
2023/02/01 04:32:37;;;;;;;6.38;4.13;;;19.80;33.90;;;;;;5052017;28;20056;-65
2023/02/01 04:35:05;;;;;;;4.65;3.65;;;19.80;33.90;;;;;;5047408;28;20041;-65
2023/02/01 04:37:33;;;;;;;4.75;3.80;;;19.80;33.90;;;;;;5040184;28;20045;-65
2023/02/01 04:40:00;;;;;;;3.90;3.30;;;19.80;33.90;;;;;;5040260;28;20401;-65
2023/02/01 04:42:27;;;;;;;4.82;3.58;;;19.80;33.90;;;;;;5044997;28;20065;-65
2023/02/01 04:44:54;;;;;;;4.97;3.70;;;19.80;33.90;;;;;;5051271;28;20095;-65
2023/02/01 04:47:21;;;;;;;4.53;3.33;;;19.80;33.80;;;;;;5059604;28;20049;-65
2023/02/01 04:49:48;;;;;;;4.72;3.83;;;19.80;33.90;;;;;;5068867;28;20051;-65
2023/02/01 04:52:15;;;;;;;5.38;3.95;;;19.80;33.90;;;;;;5071748;28;20080;-65
2023/02/01 04:54:42;;;;;;;4.53;3.90;;;19.80;33.80;;;;;;5070025;28;20052;-65
2023/02/01 04:57:09;;;;;;;5.45;3.90;;;19.80;33.90;;;;;;5058953;28;20041;-65
2023/02/01 04:59:36;;;;;;;4.72;3.40;;;19.80;33.80;;;;;;5055286;28;20053;-65
2023/02/01 05:02:03;;;;;;;3.17;2.80;;;19.80;33.90;;;;;;5055392;28;20049;-65
2023/02/01 05:04:30;;;;;;;5.18;3.42;;;19.80;33.90;;;;;;5055405;28;20049;-65
2023/02/01 05:06:57;;;;;;;4.82;3.75;;;19.80;33.90;;;;;;5055863;28;20132;-65
2023/02/01 05:09:25;;;;;;;5.15;3.25;;;19.80;33.90;;;;;;5055302;28;20061;-65
2023/02/01 05:14:39;;;;;;;4.35;3.40;;;19.80;33.90;;;;;;5054788;28;20045;-65
2023/02/01 05:17:06;;;;;;;4.13;3.20;;;19.80;33.90;;;;;;5054930;28;20386;-65
2023/02/01 05:19:33;;;;;;;5.95;4.00;;;19.80;33.80;;;;;;5054479;28;20510;-65
2023/02/01 05:22:00;;;;;;;4.28;3.67;;;19.80;33.90;;;;;;5055267;28;20131;-65
2023/02/01 05:24:27;;;;;;;3.92;3.03;;;19.80;33.80;;;;;;5039742;28;20053;-65
2023/02/01 05:26:54;;;;;;;5.53;3.47;;;19.80;33.90;;;;;;5047264;28;20041;-65
2023/02/01 05:29:21;;;;;;;4.65;3.40;;;19.70;33.80;;;;;;5043788;28;20076;-65
2023/02/01 05:31:48;;;;;;;4.95;3.53;;;19.70;33.80;;;;;;5043617;28;20048;-65
2023/02/01 05:34:16;;;;;;;5.28;2.90;;;19.70;33.80;;;;;;5046694;28;20037;-65
2023/02/01 05:36:43;;;;;;;5.63;3.95;;;19.70;33.80;;;;;;5045761;28;20493;-65
2023/02/01 05:39:10;;;;;;;4.63;3.83;;;19.70;33.60;;;;;;5049419;28;20041;-65
2023/02/01 05:41:38;;;;;;;5.10;3.75;;;19.70;33.30;;;;;;5043052;28;20045;-65
2023/02/01 05:44:07;;;;;;;5.80;4.40;;;19.70;33.20;;;;;;5042933;28;20510;-65
2023/02/01 05:46:35;;;;;;;7.78;4.68;;;19.70;33.10;;;;;;5046361;28;20077;-65
2023/02/01 05:49:03;;;;;;;5.65;4.22;;;19.70;33.10;;;;;;5046610;28;20432;-65
2023/02/01 05:51:31;;;;;;;5.65;3.90;;;19.70;33.20;;;;;;5048647;28;20116;-65
2023/02/01 05:53:58;;;;;;;4.57;3.95;;;19.70;33.20;;;;;;5052424;28;20063;-65
2023/02/01 05:56:25;;;;;;;5.18;3.78;;;19.60;33.10;;;;;;5054332;28;20041;-65
2023/02/01 05:58:52;;;;;;;6.07;4.38;;;19.60;33.20;;;;;;5054003;28;20045;-65
2023/02/01 06:01:19;;;;;;;6.30;4.47;;;19.70;33.30;;;;;;5053957;28;20051;-65
2023/02/01 06:03:46;;;;;;;6.90;4.35;;;19.70;33.30;;;;;;5053213;28;20045;-65
2023/02/01 06:06:13;;;;;;;9.43;5.40;;;19.70;33.30;;;;;;5052161;28;20044;-65
2023/02/01 06:08:40;;;;;;;6.85;4.60;;;19.70;33.20;;;;;;5063384;28;20045;-64
2023/02/01 06:11:07;;;;;;;5.80;4.35;;;19.70;33.20;;;;;;5053404;28;20190;-64
2023/02/01 06:13:38;;;;;;;5.63;4.38;;;19.80;33.20;;;;;;5046708;28;20041;-65
2023/02/01 06:16:07;;;;;;;6.93;4.35;;;19.80;33.20;;;;;;5053846;28;20048;-65
2023/02/01 06:18:35;;;;;;;8.50;5.22;;;19.80;33.20;;;;;;5053335;28;20045;-62
2023/02/01 06:21:03;;;;;;;9.30;6.60;;;19.80;33.10;;;;;;5045119;28;20071;-64
2023/02/01 06:23:30;;;;;;;10.63;6.85;;;19.90;33.10;;;;;;5041498;28;20071;-66
2023/02/01 06:26:03;;;;;;;8.52;6.40;;;19.90;33.60;;;;;;5046135;28;20487;-62
2023/02/01 06:28:32;;;;;;;12.13;7.32;;;19.90;33.00;;;;;;5045420;28;20053;-66
2023/02/01 06:31:06;;;;;;;11.38;7.35;;;19.90;32.90;;;;;;5044374;28;20555;-66
2023/02/01 06:33:34;;;;;;;13.27;7.65;;;20.00;33.00;;;;;;5038242;28;20501;-64
2023/02/01 06:36:04;;;;;;;11.48;7.25;;;20.00;32.90;;;;;;5043222;28;20052;-66
2023/02/01 06:38:31;;;;;;;11.75;7.28;;;20.00;32.90;;;;;;5039286;28;20052;-64
2023/02/01 06:40:58;;;;;;;11.50;7.05;;;20.10;32.90;;;;;;5039867;28;20051;-65
2023/02/01 06:43:26;;;;;;;14.73;7.38;;;20.10;33.10;;;;;;5043278;28;20143;-63
2023/02/01 06:46:04;;;;;;;10.85;7.22;;;20.20;33.40;;;;;;5042137;28;20041;-65
2023/02/01 06:48:32;;;;;;;12.00;7.10;;;20.20;33.20;;;;;;5039889;28;20164;-68
2023/02/01 06:51:25;;;;;;;28.92;10.80;;;20.30;33.40;;;;;;5039951;28;20060;-68
2023/02/01 06:53:52;;;;;;;19.60;9.55;;;20.30;33.60;;;;;;5039252;28;20041;-66
2023/02/01 06:56:20;;;;;;;13.45;8.25;;;20.30;33.60;;;;;;5039056;28;20477;-68
2023/02/01 06:58:47;;;;;;;11.93;7.68;;;20.40;33.50;;;;;;5042091;28;20336;-65
2023/02/01 07:01:15;;;;;;;17.13;9.35;;;20.50;33.40;;;;;;5045512;28;20485;-64
2023/02/01 07:03:43;;;;;;;13.98;9.25;;;20.50;33.40;;;;;;5043557;28;20080;-65
2023/02/01 07:06:10;;;;;;;15.40;8.75;;;20.60;33.50;;;;;;5041962;28;20152;-65
2023/02/01 07:08:38;;;;;;;11.57;7.35;;;20.60;33.60;;;;;;5036036;28;20442;-64
2023/02/01 07:11:08;;;;;;;12.30;8.15;;;20.70;33.60;;;;;;5033943;28;20056;-65
2023/02/01 07:13:36;;;;;;;13.07;9.25;;;20.70;33.60;;;;;;5035644;28;20044;-60
2023/02/01 07:16:05;;;;;;;13.70;8.65;;;20.70;33.40;;;;;;5036889;28;20064;-64
2023/02/01 07:18:33;;;;;;;14.68;8.73;;;20.80;33.50;;;;;;5041427;28;20550;-64
2023/02/01 07:21:00;;;;;;;16.15;9.45;;;20.80;33.60;;;;;;5037980;28;20052;-67
2023/02/01 07:23:28;;;;;;;17.23;10.48;;;20.90;33.70;;;;;;5033209;28;20137;-64
2023/02/01 07:25:58;;;;;;;19.38;10.50;;;20.90;33.70;;;;;;5033216;28;20555;-66
2023/02/01 07:28:26;;;;;;;17.27;10.18;;;21.00;33.80;;;;;;5036439;28;20551;-66
2023/02/01 07:30:54;;;;;;;16.23;9.70;;;21.00;33.70;;;;;;5037954;28;20059;-66
2023/02/01 07:33:23;;;;;;;14.65;9.55;;;21.00;33.60;;;;;;5040296;28;20060;-68
2023/02/01 07:35:53;;;;;;;18.73;11.02;;;21.10;33.50;;;;;;5039556;28;20405;-67
2023/02/01 07:38:21;;;;;;;18.70;10.52;;;21.10;33.50;;;;;;5039747;28;20049;-64
2023/02/01 07:40:48;;;;;;;18.60;11.65;;;21.10;33.40;;;;;;5039249;28;20473;-68
2023/02/01 07:43:16;;;;;;;29.30;11.55;;;21.20;33.40;;;;;;5037576;28;20400;-68
2023/02/01 07:45:50;;;;;;;21.55;12.20;;;21.20;33.30;;;;;;5041399;28;20337;-64
2023/02/01 07:48:17;;;;;;;16.63;11.23;;;21.30;33.40;;;;;;5040278;28;20140;-65
2023/02/01 07:50:44;;;;;;;22.77;11.75;;;21.30;33.40;;;;;;5041424;28;20492;-64
2023/02/01 07:53:11;;;;;;;18.60;11.10;;;21.40;33.20;;;;;;5039707;28;20041;-65
2023/02/01 07:55:39;;;;;;;18.10;11.10;;;21.40;33.10;;;;;;5037332;28;20060;-65
2023/02/01 07:58:06;;;;;;;18.83;12.13;;;21.50;32.90;;;;;;5039409;28;20041;-65
2023/02/01 08:03:21;;;;;;;22.02;12.23;;;21.50;32.60;;;;;;5045561;28;20077;-67
2023/02/01 08:05:48;;;;;;;22.98;13.27;;;21.50;32.50;;;;;;5041018;28;20049;-67
2023/02/01 08:08:15;;;;;;;22.33;12.15;;;21.60;32.40;;;;;;5040002;28;20132;-63
2023/02/01 08:10:42;;;;;;;20.83;12.55;;;21.60;32.50;;;;;;5043793;28;20412;-65
2023/02/01 08:13:09;;;;;;;22.65;12.23;;;21.70;32.90;;;;;;5038066;28;20127;-69
2023/02/01 08:15:37;;;;;;;19.20;11.95;;;21.70;32.90;;;;;;5042522;28;20045;-64
2023/02/01 08:18:04;;;;;;;20.23;12.02;;;21.70;32.90;;;;;;5038861;28;20037;-64
2023/02/01 08:20:35;;;;;;;19.80;11.88;;;21.70;33.00;;;;;;5039393;28;20053;-69
2023/02/01 08:23:02;;;;;;;21.40;11.68;;;21.80;33.10;;;;;;5034651;28;20131;-69
2023/02/01 08:25:30;;;;;;;19.08;12.05;;;21.80;33.10;;;;;;5040818;28;20408;-69
2023/02/01 08:27:57;;;;;;;22.10;12.13;;;21.80;33.10;;;;;;5039556;28;20068;-67
2023/02/01 08:30:24;;;;;;;19.20;11.05;;;21.90;33.00;;;;;;5038001;28;20048;-66
2023/02/01 08:32:51;;;;;;;20.40;11.43;;;21.90;32.90;;;;;;5041533;28;20044;-65
2023/02/01 08:35:19;;;;;;;21.55;11.52;;;21.90;32.80;;;;;;5041411;28;20049;-65
2023/02/01 08:37:52;;;;;;;22.40;11.52;;;21.90;32.70;;;;;;5042216;28;20111;-64
2023/02/01 08:40:21;;;;;;;17.58;11.07;;;21.90;32.60;;;;;;5045489;28;20044;-63
2023/02/01 08:42:52;;;;;;;22.15;11.85;;;21.90;32.40;;;;;;5047463;28;20057;-64
2023/02/01 08:45:21;;;;;;;21.65;11.50;;;21.90;32.40;;;;;;5048037;28;20095;-65
2023/02/01 08:47:49;;;;;;;21.02;12.40;;;22.00;32.30;;;;;;5044821;28;20083;-66
2023/02/01 08:50:17;;;;;;;21.05;11.75;;;22.00;32.30;;;;;;5043821;28;20665;-64
2023/02/01 08:52:44;;;;;;;22.27;12.38;;;22.00;32.20;;;;;;5043972;28;20455;-64
2023/02/01 08:55:12;;;;;;;20.50;11.13;;;22.00;32.10;;;;;;5045347;28;20498;-64
2023/02/01 08:57:40;;;;;;;20.65;11.80;;;21.90;32.00;;;;;;5043742;28;20517;-64
2023/02/01 09:00:12;;;;;;;18.50;10.88;;;22.00;32.00;;;;;;5046639;28;20049;-65
2023/02/01 09:02:39;;;;;;;23.25;11.68;;;22.00;32.50;;;;;;5046898;28;20041;-67
2023/02/01 09:05:06;;;;;;;26.13;12.82;;;22.00;31.90;;;;;;5046288;28;20071;-66
2023/02/01 09:07:34;;;;;;;24.67;13.75;;;22.00;32.00;;;;;;5049899;28;20045;-64
2023/02/01 09:10:02;;;;;;;27.20;12.98;;;22.00;32.10;;;;;;5044991;28;20143;-64
2023/02/01 09:12:31;;;;;;;27.55;12.85;;;22.00;32.10;;;;;;5046508;28;20060;-65
2023/02/01 09:14:59;;;;;;;27.55;13.48;;;22.10;32.20;;;;;;5044178;28;20122;-65
2023/02/01 09:17:28;;;;;;;24.45;12.60;;;22.10;32.10;;;;;;5043615;28;20559;-66
2023/02/01 09:20:00;;;;;;;26.05;13.30;;;22.10;32.10;;;;;;5048460;28;20456;-66
2023/02/01 09:22:27;;;;;;;25.20;13.30;;;22.10;31.90;;;;;;5044166;28;20073;-66
2023/02/01 09:24:54;;;;;;;26.20;12.18;;;22.10;31.70;;;;;;5043308;28;20045;-64
2023/02/01 09:27:22;;;;;;;28.30;12.20;;;22.20;31.50;;;;;;5042117;28;20076;-64
2023/02/01 09:29:52;;;;;;;28.65;11.95;;;22.30;31.40;;;;;;5042726;28;20053;-63
2023/02/01 09:32:23;;;;;;;22.48;12.25;;;22.30;31.40;;;;;;5041119;28;20045;-65
2023/02/01 09:34:52;;;;;;;21.08;11.52;;;22.30;31.30;;;;;;5039514;28;20053;-64
2023/02/01 09:37:19;;;;;;;19.42;11.40;;;22.40;31.30;;;;;;5043457;28;20049;-65
2023/02/01 09:39:47;;;;;;;20.65;11.95;;;22.40;31.20;;;;;;5046393;28;20720;-64
2023/02/01 09:42:50;;;;;;;20.05;11.55;;;22.40;31.10;;;;;;5042922;28;20052;-63
2023/02/01 09:45:44;;;;;;;23.58;11.63;;;22.40;31.00;;;;;;5042639;28;20067;-64
2023/02/01 09:48:19;;;;;;;22.58;12.13;;;22.50;31.00;;;;;;5045235;28;20484;-65
2023/02/01 09:50:56;;;;;;;18.27;11.07;;;22.50;30.90;;;;;;5042241;28;20164;-66
2023/02/01 09:53:29;;;;;;;21.48;11.95;;;22.50;30.90;;;;;;5043866;28;20045;-67
2023/02/01 09:56:13;;;;;;;25.83;12.52;;;22.50;30.80;;;;;;5039998;28;20069;-67
2023/02/01 09:58:52;;;;;;;23.25;12.00;;;22.60;30.80;;;;;;5042901;28;20045;-65
2023/02/01 10:01:22;;;;;;;21.50;12.23;;;22.60;31.00;;;;;;5044787;28;20088;-66
2023/02/01 10:04:01;;;;;;;21.98;12.00;;;22.60;31.20;;;;;;5045934;28;20052;-66
2023/02/01 10:07:08;;;;;;;20.75;12.45;;;22.70;31.80;;;;;;5040605;28;20851;-65
2023/02/01 10:10:02;;;;;;;25.67;13.27;;;22.70;31.20;;;;;;5044766;28;20566;-64
2023/02/01 10:12:57;;;;;;;27.73;14.55;;;22.70;31.30;;;;;;5040866;28;20055;-69
2023/02/01 10:16:04;;;;;;;29.35;15.70;;;22.80;31.40;;;;;;5036663;28;20547;-67
2023/02/01 10:18:51;;;;;;;27.98;13.55;;;22.80;31.20;;;;;;5042100;28;20049;-66
2023/02/01 10:21:41;;;;;;;28.00;13.82;;;22.90;31.00;;;;;;5040427;28;20075;-65
2023/02/01 10:24:28;;;;;;;33.88;14.88;;;22.90;30.80;;;;;;5039761;28;20045;-66
2023/02/01 10:27:18;;;;;;;24.35;12.63;;;22.90;30.60;;;;;;5043488;28;20132;-68
2023/02/01 10:29:51;;;;;;;21.70;12.00;;;23.00;30.50;;;;;;5039571;28;20053;-68
2023/02/01 10:32:29;;;;;;;21.45;12.65;;;23.00;30.30;;;;;;5037354;28;20077;-66
2023/02/01 10:35:17;;;;;;;20.50;11.52;;;23.10;30.40;;;;;;5039979;28;20053;-68
2023/02/01 10:37:46;;;;;;;21.50;11.70;;;23.10;30.50;;;;;;5036815;28;20048;-61
2023/02/01 10:40:22;;;;;;;20.55;10.85;;;23.10;30.50;;;;;;5045256;28;20135;-61
2023/02/01 10:42:52;;;;;;;23.48;10.07;;;23.10;30.40;;;;;;5043709;28;20497;-69
2023/02/01 10:45:22;;;;;;;19.75;10.05;;;23.10;30.40;;;;;;5043937;28;20049;-63
2023/02/01 10:47:52;;;;;;;19.35;10.80;;;23.20;30.40;;;;;;5041711;28;20065;-61
2023/02/01 10:50:51;;;;;;;22.67;11.87;;;23.20;30.50;;;;;;5036125;28;20055;-64
2023/02/01 10:53:39;;;;;;;22.83;11.18;;;23.20;30.70;;;;;;5037711;28;20045;-63
2023/02/01 10:56:09;;;;;;;23.30;9.80;;;23.20;30.80;;;;;;5039889;28;20076;-64
2023/02/01 10:58:44;;;;;;;17.80;10.30;;;23.20;30.70;;;;;;5038838;28;20087;-63
2023/02/01 11:01:37;;;;;;;19.88;10.63;;;23.20;30.50;;;;;;5036727;28;20049;-64
2023/02/01 11:04:09;;;;;;;16.77;10.38;;;23.30;30.40;;;;;;5042321;28;20044;-66
2023/02/01 11:06:40;;;;;;;17.15;9.23;;;23.20;30.10;;;;;;5045403;28;20068;-66
2023/02/01 11:09:17;;;;;;;14.52;8.73;;;23.30;30.10;;;;;;5045767;28;20049;-66
2023/02/01 11:11:56;;;;;;;15.43;9.32;;;23.30;30.10;;;;;;5043689;28;20041;-63
2023/02/01 11:14:40;;;;;;;22.17;10.63;;;23.30;30.00;;;;;;5040240;28;20053;-64
2023/02/01 11:17:28;;;;;;;15.02;8.95;;;23.30;30.00;;;;;;5042818;28;20136;-64
2023/02/01 11:20:01;;;;;;;17.60;9.55;;;23.40;30.00;;;;;;5045941;28;20511;-65
2023/02/01 11:22:29;;;;;;;18.67;9.23;;;23.40;29.90;;;;;;5042424;28;20164;-64
2023/02/01 11:24:57;;;;;;;18.52;9.75;;;23.40;29.80;;;;;;5039680;28;20044;-64
2023/02/01 11:27:26;;;;;;;16.52;9.25;;;23.40;29.80;;;;;;5042134;28;20055;-64
2023/02/01 11:30:00;;;;;;;15.38;10.50;;;23.40;29.70;;;;;;5042658;28;20049;-63
2023/02/01 11:32:27;;;;;;;21.25;9.85;;;23.40;29.70;;;;;;5042345;28;20076;-62
2023/02/01 11:34:59;;;;;;;16.15;9.70;;;23.40;29.80;;;;;;5043954;28;20428;-62
2023/02/01 11:37:34;;;;;;;16.98;9.43;;;23.40;29.80;;;;;;5046201;28;20053;-67
2023/02/01 11:40:22;;;;;;;18.52;9.90;;;23.40;30.00;;;;;;5042688;28;20049;-66
2023/02/01 11:42:55;;;;;;;18.02;9.52;;;23.30;29.90;;;;;;5044276;28;20052;-66
2023/02/01 11:45:29;;;;;;;18.05;10.27;;;23.40;29.90;;;;;;5047056;28;20063;-64
2023/02/01 11:47:58;;;;;;;17.38;10.52;;;23.40;30.00;;;;;;5042833;28;20049;-65
2023/02/01 11:50:51;;;;;;;18.08;10.15;;;23.40;29.90;;;;;;5044948;28;20139;-64
2023/02/01 11:53:58;;;;;;;20.63;11.48;;;23.40;29.90;;;;;;5043342;28;20405;-64
2023/02/01 11:56:37;;;;;;;19.23;11.13;;;23.40;29.90;;;;;;5040128;28;20043;-62
2023/02/01 11:59:36;;;;;;;20.83;11.27;;;23.40;29.90;;;;;;5038711;28;20045;-64
2023/02/01 12:02:27;;;;;;;20.60;11.27;;;23.40;29.90;;;;;;5039856;28;20053;-63
2023/02/01 12:05:08;;;;;;;25.95;12.02;;;23.50;29.80;;;;;;5041557;28;20158;-63
2023/02/01 12:08:04;;;;;;;22.70;11.40;;;23.50;29.80;;;;;;5044082;28;20080;-66
2023/02/01 12:11:03;;;;;;;21.40;12.02;;;23.50;29.80;;;;;;5046343;28;20052;-64
2023/02/01 12:13:57;;;;;;;25.23;12.20;;;23.50;29.80;;;;;;5040318;28;20239;-63
2023/02/01 12:16:51;;;;;;;20.80;11.40;;;23.60;29.80;;;;;;5043653;28;20136;-65
2023/02/01 12:19:48;;;;;;;24.33;11.88;;;23.60;29.80;;;;;;5042705;28;20053;-64
2023/02/01 12:22:45;;;;;;;24.98;13.32;;;23.60;29.70;;;;;;5045965;28;20044;-62
2023/02/01 12:25:41;;;;;;;29.10;14.60;;;23.60;29.70;;;;;;5044221;28;20413;-63
2023/02/01 12:28:34;;;;;;;33.83;15.75;;;23.60;29.70;;;;;;5043804;28;20110;-65
2023/02/01 12:31:24;;;;;;;32.17;15.93;;;23.60;29.90;;;;;;5042878;28;20056;-63
2023/02/01 12:34:21;;;;;;;31.02;14.93;;;23.60;29.80;;;;;;5041060;28;20784;-63
2023/02/01 12:37:21;;;;;;;27.08;15.40;;;23.60;29.80;;;;;;5041474;28;20037;-62
2023/02/01 12:40:20;;;;;;;29.83;15.85;;;23.60;29.70;;;;;;5040862;28;20056;-64
2023/02/01 12:43:04;;;;;;;38.08;18.30;;;23.60;29.70;;;;;;5044060;28;20076;-62
2023/02/01 12:45:42;;;;;;;37.65;18.75;;;23.60;29.70;;;;;;5041905;28;20088;-63
2023/02/01 12:48:34;;;;;;;38.38;17.80;;;23.60;29.80;;;;;;5038907;28;20049;-62
2023/02/01 12:51:09;;;;;;;35.00;17.02;;;23.60;29.70;;;;;;5039061;28;20064;-61
2023/02/01 12:54:05;;;;;;;31.08;16.42;;;23.50;29.80;;;;;;5035834;28;20045;-63
2023/02/01 12:56:48;;;;;;;35.75;17.88;;;23.50;30.00;;;;;;5038707;28;20054;-62
2023/02/01 12:59:44;;;;;;;31.08;16.15;;;23.50;30.10;;;;;;5038274;28;20053;-63
2023/02/01 13:02:20;;;;;;;34.05;14.60;;;23.50;30.20;;;;;;5038381;28;20079;-63
2023/02/01 13:05:11;;;;;;;32.83;15.80;;;23.40;30.30;;;;;;5039439;28;20056;-61
2023/02/01 13:07:49;;;;;;;;;;;23.40;30.40;;;;;;5039423;28;20041;-61
2023/02/01 13:10:28;;;;;;;27.58;13.52;;;23.40;30.50;;;;;;5037060;28;19929;-60
2023/02/01 13:13:19;;;;;;;28.25;13.00;;;23.40;30.60;;;;;;5038883;28;20050;-62
2023/02/01 13:16:16;;;;;;;26.52;13.90;;;23.40;30.60;;;;;;5040645;28;20511;-64
2023/02/01 13:18:50;;;;;;;33.60;16.08;;;23.40;30.70;;;;;;5040876;28;20071;-63
2023/02/01 13:21:32;;;;;;;30.27;16.17;;;23.40;30.80;;;;;;5049752;28;20520;-63
2023/02/01 13:23:59;;;;;;;36.03;17.00;;;23.40;30.90;;;;;;5046656;28;20469;-66
2023/02/01 13:26:26;;;;;;;39.92;17.60;;;23.40;30.90;;;;;;5048345;28;20139;-66
2023/02/01 13:29:00;;;;;;;39.97;18.15;;;23.40;30.90;;;;;;5043223;28;20049;-64
2023/02/01 13:31:51;;;;;;;38.35;17.38;;;23.40;30.90;;;;;;5048928;28;20041;-63